Time;durP1;ratioP1;P1;durP2;ratioP2;P2;SDS_P1;SDS_P2;PMS_P1;PMS_P2;Temp;Humidity;BMP_temperature;BMP_pressure;BME280_temperature;BME280_humidity;BME280_pressure;Samples;Min_cycle;Max_cycle;Signal;HPM_P1;HPM_P2
2023/10/18 00:01:57;;;;;;;1999.90;999.90;;;;;;;;;;5094775;28;20051;-84
2023/10/18 00:04:23;;;;;;;1999.90;999.90;;;;;;;;;;5094432;28;20056;-83
2023/10/18 00:06:54;;;;;;;1999.90;999.90;;;;;;;;;;5091960;28;20044;-84
2023/10/18 00:09:45;;;;;;;1999.90;999.90;;;;;;;;;;5092370;28;20054;-83
2023/10/18 00:12:12;;;;;;;1999.90;999.90;;;;;;;;;;5097071;28;20093;-83
2023/10/18 00:14:39;;;;;;;1999.90;999.90;;;;;;;;;;5094426;28;20032;-84
2023/10/18 00:17:05;;;;;;;1999.90;999.90;;;;;;;;;;5091536;28;20067;-84
2023/10/18 00:19:33;;;;;;;1999.90;999.90;;;;;;;;;;5090958;28;20063;-83
2023/10/18 00:22:00;;;;;;;1999.90;999.90;;;;;;;;;;5094831;28;20043;-84
2023/10/18 00:24:29;;;;;;;1999.90;999.90;;;;;;;;;;5091182;28;20048;-83
2023/10/18 00:26:56;;;;;;;1999.90;999.90;;;;;;;;;;5091511;28;20040;-83
2023/10/18 00:29:22;;;;;;;1999.90;999.90;;;;;;;;;;5093513;28;20043;-84
2023/10/18 00:31:49;;;;;;;1999.90;999.90;;;;;;;;;;5096253;28;20039;-84
2023/10/18 00:34:15;;;;;;;1999.90;999.90;;;;;;;;;;5090362;28;20048;-83
2023/10/18 00:36:43;;;;;;;1999.90;999.90;;;;;;;;;;5088298;28;20129;-84
2023/10/18 00:39:20;;;;;;;1999.90;999.90;;;;;;;;;;5094352;28;20048;-83
2023/10/18 00:41:48;;;;;;;1999.90;999.90;;;;;;;;;;5096094;28;20084;-84
2023/10/18 00:44:14;;;;;;;1999.90;999.90;;;;;;;;;;5092416;28;20049;-83
2023/10/18 00:46:41;;;;;;;1999.90;999.90;;;;;;;;;;5096863;28;20416;-84
2023/10/18 00:49:14;;;;;;;1999.90;999.90;;;;;;;;;;5094892;28;20056;-83
2023/10/18 00:51:40;;;;;;;1999.90;999.90;;;;;;;;;;5092595;28;20478;-83
2023/10/18 00:54:10;;;;;;;1999.90;999.90;;;;;;;;;;5095114;28;20101;-83
2023/10/18 00:56:38;;;;;;;1999.90;999.90;;;;;;;;;;5094622;28;20488;-84
2023/10/18 00:59:15;;;;;;;1999.90;999.90;;;;;;;;;;5092830;28;20052;-84
2023/10/18 01:01:44;;;;;;;1999.90;999.90;;;;;;;;;;5091446;28;20133;-83
2023/10/18 01:04:12;;;;;;;1999.90;999.90;;;;;;;;;;5094502;28;20044;-83
2023/10/18 01:06:42;;;;;;;1999.90;999.90;;;;;;;;;;5091975;28;20036;-84
2023/10/18 01:09:15;;;;;;;1999.90;999.90;;;;;;;;;;5098063;28;20507;-83
2023/10/18 01:11:41;;;;;;;1999.90;999.90;;;;;;;;;;5096877;28;20067;-83
2023/10/18 01:14:13;;;;;;;1999.90;999.90;;;;;;;;;;5090285;28;20048;-83
2023/10/18 01:16:39;;;;;;;1999.90;999.90;;;;;;;;;;5090761;28;20043;-83
2023/10/18 01:19:08;;;;;;;1999.90;999.90;;;;;;;;;;5094687;28;20070;-84
2023/10/18 01:21:35;;;;;;;1999.90;999.90;;;;;;;;;;5099478;28;20047;-83
2023/10/18 01:24:02;;;;;;;1999.90;999.90;;;;;;;;;;5097690;28;20130;-83
2023/10/18 01:26:31;;;;;;;1999.90;999.90;;;;;;;;;;5096708;28;20043;-83
2023/10/18 01:29:00;;;;;;;1999.90;999.90;;;;;;;;;;5093393;28;20036;-83
2023/10/18 01:31:27;;;;;;;1999.90;999.90;;;;;;;;;;5089444;28;20504;-83
2023/10/18 01:33:53;;;;;;;1999.90;999.90;;;;;;;;;;5087180;28;20043;-83
2023/10/18 01:36:21;;;;;;;1999.90;999.90;;;;;;;;;;5087242;28;20427;-83
2023/10/18 01:38:49;;;;;;;1999.90;999.90;;;;;;;;;;5091948;28;20048;-83
2023/10/18 01:41:25;;;;;;;1999.90;999.90;;;;;;;;;;5091843;28;20483;-83
2023/10/18 01:43:53;;;;;;;1999.90;999.90;;;;;;;;;;5091332;28;20489;-83
2023/10/18 01:46:19;;;;;;;1999.90;999.90;;;;;;;;;;5085259;28;20063;-83
2023/10/18 01:48:50;;;;;;;1999.90;999.90;;;;;;;;;;5092559;28;20052;-84
2023/10/18 01:51:17;;;;;;;1999.90;999.90;;;;;;;;;;5088762;28;20048;-83
2023/10/18 01:53:43;;;;;;;1999.90;999.90;;;;;;;;;;5087064;28;20047;-83
2023/10/18 01:56:10;;;;;;;1999.90;999.90;;;;;;;;;;5090172;28;20050;-84
2023/10/18 01:58:37;;;;;;;1999.90;999.90;;;;;;;;;;5089030;28;20364;-84
2023/10/18 02:01:09;;;;;;;1999.90;999.90;;;;;;;;;;5091129;28;20174;-83
2023/10/18 02:03:36;;;;;;;1999.90;999.90;;;;;;;;;;5089593;28;20054;-83
2023/10/18 02:06:06;;;;;;;1999.90;999.90;;;;;;;;;;5088675;28;20508;-83
2023/10/18 02:08:33;;;;;;;1999.90;999.90;;;;;;;;;;5078146;28;20097;-83
2023/10/18 02:10:59;;;;;;;1999.90;999.90;;;;;;;;;;5095109;28;20048;-84
2023/10/18 02:13:26;;;;;;;1999.90;999.90;;;;;;;;;;5095196;28;20127;-84
2023/10/18 02:15:53;;;;;;;1999.90;999.90;;;;;;;;;;5089787;28;20483;-84
2023/10/18 02:18:21;;;;;;;1999.90;999.90;;;;;;;;;;5087427;28;20470;-83
2023/10/18 02:20:52;;;;;;;1999.90;999.90;;;;;;;;;;5089279;28;20039;-83
2023/10/18 02:23:21;;;;;;;1999.90;999.90;;;;;;;;;;5090166;28;20051;-83
2023/10/18 02:25:49;;;;;;;1999.90;999.90;;;;;;;;;;5091267;28;20548;-84
2023/10/18 02:28:24;;;;;;;1999.90;999.90;;;;;;;;;;5091236;28;20047;-84
2023/10/18 02:30:56;;;;;;;1999.90;999.90;;;;;;;;;;5089794;28;20071;-84
2023/10/18 02:33:26;;;;;;;1999.90;999.90;;;;;;;;;;5092034;28;20127;-84
2023/10/18 02:35:57;;;;;;;1999.90;999.90;;;;;;;;;;5087650;28;20052;-84
2023/10/18 02:38:24;;;;;;;1999.90;999.90;;;;;;;;;;5094460;28;20469;-83
2023/10/18 02:40:50;;;;;;;1999.90;999.90;;;;;;;;;;5092217;28;20051;-83
2023/10/18 02:43:17;;;;;;;1999.90;999.90;;;;;;;;;;5092092;28;20044;-84
2023/10/18 02:45:52;;;;;;;1999.90;999.90;;;;;;;;;;5089432;28;20047;-84
2023/10/18 02:48:24;;;;;;;1999.90;999.90;;;;;;;;;;5086046;28;20056;-84
2023/10/18 02:50:54;;;;;;;1999.90;999.90;;;;;;;;;;5086723;28;20075;-84
2023/10/18 02:53:21;;;;;;;1999.90;999.90;;;;;;;;;;5090550;28;20404;-84
2023/10/18 02:55:54;;;;;;;1999.90;999.90;;;;;;;;;;5094986;28;20048;-84
2023/10/18 02:58:21;;;;;;;1999.90;999.90;;;;;;;;;;5092701;28;20051;-84
2023/10/18 03:00:49;;;;;;;1999.90;999.90;;;;;;;;;;5088718;28;20094;-84
2023/10/18 03:03:18;;;;;;;1999.90;999.90;;;;;;;;;;5088446;28;20055;-84
2023/10/18 03:05:44;;;;;;;1999.90;999.90;;;;;;;;;;5095064;28;20055;-84
2023/10/18 03:08:12;;;;;;;1999.90;999.90;;;;;;;;;;5090645;28;20043;-83
2023/10/18 03:10:47;;;;;;;1999.90;999.90;;;;;;;;;;5093269;28;20606;-84
2023/10/18 03:13:14;;;;;;;1999.90;999.90;;;;;;;;;;5089796;28;20083;-84
2023/10/18 03:15:52;;;;;;;1999.90;999.90;;;;;;;;;;5089582;28;20075;-84
2023/10/18 03:18:24;;;;;;;1999.90;999.90;;;;;;;;;;5087336;28;20135;-84
2023/10/18 03:20:53;;;;;;;1999.90;999.90;;;;;;;;;;5092330;28;20043;-84
2023/10/18 03:23:22;;;;;;;1999.90;999.90;;;;;;;;;;5095285;28;20055;-84
2023/10/18 03:25:55;;;;;;;1999.90;999.90;;;;;;;;;;5095402;28;20048;-84
2023/10/18 03:28:23;;;;;;;1999.90;999.90;;;;;;;;;;5090428;28;20097;-84
2023/10/18 03:30:50;;;;;;;1999.90;999.90;;;;;;;;;;5094569;28;20129;-84
2023/10/18 03:33:19;;;;;;;1999.90;999.90;;;;;;;;;;5093906;28;20055;-84
2023/10/18 03:35:49;;;;;;;1999.90;999.90;;;;;;;;;;5094056;28;20044;-84
2023/10/18 03:38:17;;;;;;;1999.90;999.90;;;;;;;;;;5093771;28;20335;-84
2023/10/18 03:40:48;;;;;;;1999.90;999.90;;;;;;;;;;5091363;28;20059;-84
2023/10/18 03:43:16;;;;;;;1999.90;999.90;;;;;;;;;;5087355;28;20080;-83
2023/10/18 03:48:29;;;;;;;1999.90;999.90;;;;;;;;;;5089304;28;20059;-84
2023/10/18 03:51:00;;;;;;;1999.90;999.90;;;;;;;;;;5090655;28;20060;-85
2023/10/18 03:53:27;;;;;;;1999.90;999.90;;;;;;;;;;5083842;28;20047;-84
2023/10/18 03:55:55;;;;;;;1999.90;999.90;;;;;;;;;;5088434;28;20489;-84
2023/10/18 03:58:24;;;;;;;1999.90;999.90;;;;;;;;;;5084524;28;20336;-84
2023/10/18 04:00:55;;;;;;;1999.90;999.90;;;;;;;;;;5090149;28;20051;-84
2023/10/18 04:03:27;;;;;;;1999.90;999.90;;;;;;;;;;5085721;28;20612;-84
2023/10/18 04:05:54;;;;;;;1999.90;999.90;;;;;;;;;;5081939;28;20446;-84
2023/10/18 04:08:22;;;;;;;1999.90;999.90;;;;;;;;;;5083191;28;20052;-84
2023/10/18 04:10:59;;;;;;;1999.90;999.90;;;;;;;;;;5088621;28;20059;-85
2023/10/18 04:13:27;;;;;;;1999.90;999.90;;;;;;;;;;5092903;28;20052;-85
2023/10/18 04:15:59;;;;;;;1999.90;999.90;;;;;;;;;;5092133;28;20473;-85
2023/10/18 04:18:29;;;;;;;1999.90;999.90;;;;;;;;;;5090349;28;20535;-85
2023/10/18 04:20:59;;;;;;;1999.90;999.90;;;;;;;;;;5089384;28;20129;-85
2023/10/18 04:23:27;;;;;;;1999.90;999.90;;;;;;;;;;5092511;28;20103;-85
2023/10/18 04:25:58;;;;;;;1999.90;999.90;;;;;;;;;;5092368;28;20085;-85
2023/10/18 04:28:28;;;;;;;1999.90;999.90;;;;;;;;;;5091393;28;20408;-85
2023/10/18 04:30:59;;;;;;;1999.90;999.90;;;;;;;;;;5089291;28;20127;-85
2023/10/18 04:33:28;;;;;;;1999.90;999.90;;;;;;;;;;5095116;28;20052;-85
2023/10/18 04:35:55;;;;;;;1999.90;999.90;;;;;;;;;;5097700;28;20559;-84
2023/10/18 04:38:23;;;;;;;1999.90;999.90;;;;;;;;;;5094252;28;20518;-84
2023/10/18 04:40:53;;;;;;;1999.90;999.90;;;;;;;;;;5094080;28;20155;-84
2023/10/18 04:43:22;;;;;;;1999.90;999.90;;;;;;;;;;5093208;28;20125;-84
2023/10/18 04:45:56;;;;;;;1999.90;999.90;;;;;;;;;;5091374;28;20047;-85
2023/10/18 04:48:46;;;;;;;1999.90;999.90;;;;;;;;;;5097417;28;20491;-84
2023/10/18 04:51:09;;;;;;;1999.90;999.90;;;;;;;;;;5088541;28;20186;-84
2023/10/18 04:53:38;;;;;;;1999.90;999.90;;;;;;;;;;5091602;28;20479;-85
2023/10/18 04:56:03;;;;;;;1999.90;999.90;;;;;;;;;;5095172;28;20043;-85
2023/10/18 04:58:30;;;;;;;1999.90;999.90;;;;;;;;;;5089728;28;20079;-85
2023/10/18 05:00:57;;;;;;;1999.90;999.90;;;;;;;;;;5093348;28;20052;-85
2023/10/18 05:03:30;;;;;;;1999.90;999.90;;;;;;;;;;5091262;28;20090;-85
2023/10/18 05:05:56;;;;;;;1999.90;999.90;;;;;;;;;;5095139;28;20048;-84
2023/10/18 05:08:23;;;;;;;1999.90;999.90;;;;;;;;;;5094236;28;20369;-85
2023/10/18 05:10:52;;;;;;;1999.90;999.90;;;;;;;;;;5095695;28;20086;-85
2023/10/18 05:13:32;;;;;;;1999.90;999.90;;;;;;;;;;5088645;28;20443;-84
2023/10/18 05:16:01;;;;;;;1999.90;999.90;;;;;;;;;;5091485;28;20404;-85
2023/10/18 05:18:30;;;;;;;1999.90;999.90;;;;;;;;;;5087090;28;20059;-85
2023/10/18 05:20:57;;;;;;;1999.90;999.90;;;;;;;;;;5092326;28;20235;-85
2023/10/18 05:23:25;;;;;;;1999.90;999.90;;;;;;;;;;5095657;28;20138;-84
2023/10/18 05:25:58;;;;;;;1999.90;999.90;;;;;;;;;;5093542;28;20055;-84
2023/10/18 05:28:28;;;;;;;1999.90;999.90;;;;;;;;;;5090606;28;20142;-85
2023/10/18 05:31:20;;;;;;;1999.90;999.90;;;;;;;;;;5093915;28;20555;-85
2023/10/18 05:33:54;;;;;;;1999.90;999.90;;;;;;;;;;5095457;28;20114;-84
2023/10/18 05:36:38;;;;;;;1999.90;999.90;;;;;;;;;;5090350;28;20043;-85
2023/10/18 05:42:03;;;;;;;1999.90;999.90;;;;;;;;;;5073621;27;20394;-85
2023/10/18 05:44:29;;;;;;;1999.90;999.90;;;;;;;;;;5068872;28;20465;-85
2023/10/18 05:46:56;;;;;;;1999.90;999.90;;;;;;;;;;5072033;28;20060;-85
2023/10/18 05:49:28;;;;;;;1999.90;999.90;;;;;;;;;;5074753;28;20040;-85
2023/10/18 05:51:58;;;;;;;1999.90;999.90;;;;;;;;;;5075085;28;20087;-84
2023/10/18 05:54:28;;;;;;;1999.90;999.90;;;;;;;;;;5074776;28;20105;-84
2023/10/18 05:56:56;;;;;;;1999.90;999.90;;;;;;;;;;5075033;28;20142;-85
2023/10/18 05:59:31;;;;;;;1999.90;999.90;;;;;;;;;;5074860;28;20044;-85
2023/10/18 06:02:00;;;;;;;1999.90;999.90;;;;;;;;;;5072592;28;20580;-85
2023/10/18 06:04:28;;;;;;;1999.90;999.90;;;;;;;;;;5071875;28;20052;-85
2023/10/18 06:06:58;;;;;;;1999.90;999.90;;;;;;;;;;5073756;28;20492;-86
2023/10/18 06:09:27;;;;;;;1999.90;999.90;;;;;;;;;;5076816;28;20495;-86
2023/10/18 06:11:55;;;;;;;1999.90;999.90;;;;;;;;;;5076955;28;20132;-87
2023/10/18 06:14:25;;;;;;;1999.90;999.90;;;;;;;;;;5071311;28;20076;-86
2023/10/18 06:17:06;;;;;;;1999.90;999.90;;;;;;;;;;5074055;28;20045;-86
2023/10/18 06:19:33;;;;;;;1999.90;999.90;;;;;;;;;;5069474;28;20049;-82
2023/10/18 06:21:59;;;;;;;1999.90;999.90;;;;;;;;;;5068448;28;20044;-81
2023/10/18 06:24:26;;;;;;;1999.90;999.90;;;;;;;;;;5072267;28;20048;-81
2023/10/18 06:26:52;;;;;;;1999.90;999.90;;;;;;;;;;5072806;28;20049;-81
2023/10/18 06:29:23;;;;;;;1999.90;999.90;;;;;;;;;;5073928;28;20052;-81
2023/10/18 06:31:50;;;;;;;1999.90;999.90;;;;;;;;;;5072324;28;20148;-82
2023/10/18 06:34:18;;;;;;;1999.90;999.90;;;;;;;;;;5075468;28;20053;-81
2023/10/18 06:36:47;;;;;;;1999.90;999.90;;;;;;;;;;5072929;28;20048;-82
2023/10/18 06:39:24;;;;;;;1999.90;999.90;;;;;;;;;;5076411;28;20059;-82
2023/10/18 06:41:53;;;;;;;1999.90;999.90;;;;;;;;;;5071090;28;20109;-82
2023/10/18 06:44:19;;;;;;;1999.90;999.90;;;;;;;;;;5068748;28;20052;-82
2023/10/18 06:46:47;;;;;;;1999.90;999.90;;;;;;;;;;5075555;28;20053;-82
2023/10/18 06:49:14;;;;;;;1999.90;999.90;;;;;;;;;;5069511;28;20044;-81
2023/10/18 06:51:43;;;;;;;1999.90;999.90;;;;;;;;;;5068249;28;20185;-81
2023/10/18 06:54:13;;;;;;;1999.90;999.90;;;;;;;;;;5058595;28;20079;-81
2023/10/18 06:56:40;;;;;;;1999.90;999.90;;;;;;;;;;5060438;28;20045;-81
2023/10/18 06:59:07;;;;;;;1999.90;999.90;;;;;;;;;;5061349;28;20044;-80
2023/10/18 07:01:41;;;;;;;1999.90;999.90;;;;;;;;;;5059544;28;20041;-80
2023/10/18 07:04:15;;;;;;;1999.90;999.90;;;;;;;;;;5056487;28;20435;-80
2023/10/18 07:06:45;;;;;;;1999.90;999.90;;;;;;;;;;5058031;28;20040;-80
2023/10/18 07:09:24;;;;;;;1999.90;999.90;;;;;;;;;;5052527;28;20048;-81
2023/10/18 07:11:51;;;;;;;1999.90;999.90;;;;;;;;;;5056152;28;20140;-81
2023/10/18 07:14:20;;;;;;;1999.90;999.90;;;;;;;;;;5059533;28;20045;-80
2023/10/18 07:16:48;;;;;;;1999.90;999.90;;;;;;;;;;5060551;28;20056;-80
2023/10/18 07:19:26;;;;;;;1999.90;999.90;;;;;;;;;;5057826;28;20051;-81
2023/10/18 07:21:55;;;;;;;1999.90;999.90;;;;;;;;;;5056312;28;20063;-81
2023/10/18 07:24:21;;;;;;;1999.90;999.90;;;;;;;;;;5059536;28;20049;-80
2023/10/18 07:26:48;;;;;;;1999.90;999.90;;;;;;;;;;5059278;28;20049;-81
2023/10/18 07:29:15;;;;;;;1999.90;999.90;;;;;;;;;;5057296;28;20505;-81
2023/10/18 07:31:44;;;;;;;1999.90;999.90;;;;;;;;;;5057199;28;20044;-81
2023/10/18 07:34:17;;;;;;;1999.90;999.90;;;;;;;;;;5061532;28;20048;-82
2023/10/18 07:36:45;;;;;;;1999.90;999.90;;;;;;;;;;5056151;28;20072;-80
2023/10/18 07:39:16;;;;;;;1999.90;999.90;;;;;;;;;;5058190;28;20052;-80
2023/10/18 07:41:43;;;;;;;1999.90;999.90;;;;;;;;;;5059634;28;20048;-80
2023/10/18 07:44:09;;;;;;;1999.90;999.90;;;;;;;;;;5061920;28;20052;-80
2023/10/18 07:46:39;;;;;;;1999.90;999.90;;;;;;;;;;5053854;28;20053;-80
2023/10/18 07:49:11;;;;;;;1999.90;999.90;;;;;;;;;;5059958;28;20125;-80
2023/10/18 07:51:43;;;;;;;1999.90;999.90;;;;;;;;;;5056554;28;20053;-80
2023/10/18 07:54:10;;;;;;;1999.90;999.90;;;;;;;;;;5054002;28;20045;-80
2023/10/18 07:56:40;;;;;;;1999.90;999.90;;;;;;;;;;5054894;28;20041;-81
2023/10/18 08:01:51;;;;;;;1999.90;999.90;;;;;;;;;;5059018;28;20416;-81
2023/10/18 08:04:17;;;;;;;1999.90;999.90;;;;;;;;;;5056578;28;20047;-80
2023/10/18 08:06:44;;;;;;;1999.90;999.90;;;;;;;;;;5059996;28;20043;-80
2023/10/18 08:09:11;;;;;;;1999.90;999.90;;;;;;;;;;5059548;28;20060;-81
2023/10/18 08:11:39;;;;;;;1999.90;999.90;;;;;;;;;;5057541;28;20139;-81
2023/10/18 08:14:16;;;;;;;1999.90;999.90;;;;;;;;;;5059803;28;20505;-81
2023/10/18 08:16:52;;;;;;;1999.90;999.90;;;;;;;;;;5054805;28;20120;-80
2023/10/18 08:19:22;;;;;;;1999.90;999.90;;;;;;;;;;5053614;28;20147;-80
2023/10/18 08:22:05;;;;;;;1999.90;999.90;;;;;;;;;;5057587;28;20460;-81
2023/10/18 08:24:35;;;;;;;1999.90;999.90;;;;;;;;;;5058600;28;20127;-81
2023/10/18 08:27:09;;;;;;;1999.90;999.90;;;;;;;;;;5056372;28;20053;-81
2023/10/18 08:29:36;;;;;;;1999.90;999.90;;;;;;;;;;5055802;28;20075;-82
2023/10/18 08:32:07;;;;;;;1999.90;999.90;;;;;;;;;;5052853;28;20048;-83
2023/10/18 08:34:34;;;;;;;1999.90;999.90;;;;;;;;;;5057918;28;20101;-82
2023/10/18 08:37:03;;;;;;;1999.90;999.90;;;;;;;;;;5058667;28;20053;-81
2023/10/18 08:39:29;;;;;;;1999.90;999.90;;;;;;;;;;5059214;28;20136;-82
2023/10/18 08:42:02;;;;;;;1999.90;999.90;;;;;;;;;;5057963;28;20544;-82
2023/10/18 08:44:31;;;;;;;1999.90;999.90;;;;;;;;;;5054186;28;20056;-81
2023/10/18 08:47:11;;;;;;;1999.90;999.90;;;;;;;;;;5057103;28;20041;-82
2023/10/18 08:49:45;;;;;;;1999.90;999.90;;;;;;;;;;5054373;28;20045;-80
2023/10/18 08:52:12;;;;;;;1999.90;999.90;;;;;;;;;;5063230;28;20156;-81
2023/10/18 08:54:41;;;;;;;1999.90;999.90;;;;;;;;;;5056435;28;20060;-80
2023/10/18 08:57:08;;;;;;;1999.90;999.90;;;;;;;;;;5055353;28;20052;-82
2023/10/18 08:59:46;;;;;;;1999.90;999.90;;;;;;;;;;5054968;28;20437;-82
2023/10/18 09:02:14;;;;;;;1999.90;999.90;;;;;;;;;;5055190;28;20051;-82
2023/10/18 09:04:44;;;;;;;1999.90;999.90;;;;;;;;;;5058385;28;20717;-81
2023/10/18 09:07:21;;;;;;;1999.90;999.90;;;;;;;;;;5052928;28;20343;-81
2023/10/18 09:09:53;;;;;;;1999.90;999.90;;;;;;;;;;5058236;28;20516;-82
2023/10/18 09:12:31;;;;;;;1999.90;999.90;;;;;;;;;;5053858;28;20534;-82
2023/10/18 09:14:59;;;;;;;1999.90;999.90;;;;;;;;;;5054318;28;20052;-82
2023/10/18 09:17:26;;;;;;;1999.90;999.90;;;;;;;;;;5058117;28;20052;-82
2023/10/18 09:19:56;;;;;;;1999.90;999.90;;;;;;;;;;5051501;28;20055;-81
2023/10/18 09:22:23;;;;;;;1999.90;999.90;;;;;;;;;;5058021;28;20504;-81
2023/10/18 09:24:49;;;;;;;1999.90;999.90;;;;;;;;;;5056159;28;20501;-81
2023/10/18 09:27:16;;;;;;;1999.90;999.90;;;;;;;;;;5055756;28;20056;-81
2023/10/18 09:29:44;;;;;;;1999.90;999.90;;;;;;;;;;5057142;28;20036;-80
2023/10/18 09:32:26;;;;;;;1999.90;999.90;;;;;;;;;;5053717;28;20167;-80
2023/10/18 09:34:56;;;;;;;1999.90;999.90;;;;;;;;;;5058366;28;20049;-83
2023/10/18 09:37:29;;;;;;;1999.90;999.90;;;;;;;;;;5054781;28;20067;-82
2023/10/18 09:39:56;;;;;;;1999.90;999.90;;;;;;;;;;5056723;28;20055;-81
2023/10/18 09:42:23;;;;;;;1999.90;999.90;;;;;;;;;;5056104;28;20060;-80
2023/10/18 09:44:50;;;;;;;1999.90;999.90;;;;;;;;;;5060026;28;20053;-81
2023/10/18 09:47:18;;;;;;;1999.90;999.90;;;;;;;;;;5058357;28;20045;-81
2023/10/18 09:49:46;;;;;;;1999.90;999.90;;;;;;;;;;5057017;28;20048;-81
2023/10/18 09:52:15;;;;;;;1999.90;999.90;;;;;;;;;;5059900;28;20351;-81
2023/10/18 09:54:50;;;;;;;1999.90;999.90;;;;;;;;;;5064783;28;20044;-81
2023/10/18 09:57:23;;;;;;;1999.90;999.90;;;;;;;;;;5054552;28;20045;-81
2023/10/18 09:59:51;;;;;;;1999.90;999.90;;;;;;;;;;5058470;28;20051;-81
2023/10/18 10:02:20;;;;;;;1999.90;999.90;;;;;;;;;;5057648;28;20044;-82
2023/10/18 10:04:52;;;;;;;1999.90;999.90;;;;;;;;;;5058427;28;20394;-81
2023/10/18 10:07:39;;;;;;;1999.90;999.90;;;;;;;;;;5055186;28;20075;-82
2023/10/18 10:10:17;;;;;;;1999.90;999.90;;;;;;;;;;5057567;28;20051;-81
2023/10/18 10:12:46;;;;;;;1999.90;999.90;;;;;;;;;;5052374;28;20048;-80
2023/10/18 10:15:14;;;;;;;1999.90;999.90;;;;;;;;;;5057806;28;20041;-80
2023/10/18 10:17:47;;;;;;;1999.90;999.90;;;;;;;;;;5055289;28;20045;-81
2023/10/18 10:20:14;;;;;;;1999.90;999.90;;;;;;;;;;5053705;28;20058;-80
2023/10/18 10:22:42;;;;;;;1999.90;999.90;;;;;;;;;;5051033;28;20280;-81
2023/10/18 10:25:11;;;;;;;1999.90;999.90;;;;;;;;;;5059336;28;20126;-80
2023/10/18 10:27:49;;;;;;;1999.90;999.90;;;;;;;;;;5056986;28;20072;-80
2023/10/18 10:30:25;;;;;;;1999.90;999.90;;;;;;;;;;5062725;28;20049;-81
2023/10/18 10:32:55;;;;;;;1999.90;999.90;;;;;;;;;;5055096;28;20053;-81
2023/10/18 10:35:25;;;;;;;1999.90;999.90;;;;;;;;;;5058241;28;20489;-82
2023/10/18 10:37:52;;;;;;;1999.90;999.90;;;;;;;;;;5059218;28;20064;-82
2023/10/18 10:40:39;;;;;;;1999.90;999.90;;;;;;;;;;5059042;28;20051;-83
2023/10/18 10:43:09;;;;;;;1999.90;999.90;;;;;;;;;;5052967;28;20045;-82
2023/10/18 10:45:38;;;;;;;1999.90;999.90;;;;;;;;;;5063392;28;20052;-83
2023/10/18 10:48:36;;;;;;;1999.90;999.90;;;;;;;;;;5059625;28;20053;-82
2023/10/18 10:51:11;;;;;;;1999.90;999.90;;;;;;;;;;5038337;28;20057;-83
2023/10/18 10:53:48;;;;;;;1999.90;999.90;;;;;;;;;;5061062;28;20243;-80
2023/10/18 10:56:23;;;;;;;1999.90;999.90;;;;;;;;;;5063398;28;20044;-80
2023/10/18 10:59:02;;;;;;;1999.90;999.90;;;;;;;;;;5062454;28;20071;-80
2023/10/18 11:02:07;;;;;;;1999.90;999.90;;;;;;;;;;5059318;28;20041;-83
2023/10/18 11:04:49;;;;;;;1999.90;999.90;;;;;;;;;;5060881;28;20052;-81
2023/10/18 11:07:21;;;;;;;1999.90;999.90;;;;;;;;;;5060054;28;20051;-81
2023/10/18 11:09:48;;;;;;;1999.90;999.90;;;;;;;;;;5057486;28;20068;-81
2023/10/18 11:12:15;;;;;;;1999.90;999.90;;;;;;;;;;5060703;28;20053;-84
2023/10/18 11:14:42;;;;;;;1999.90;999.90;;;;;;;;;;5059129;28;20060;-81
2023/10/18 11:17:17;;;;;;;1999.90;999.90;;;;;;;;;;5055601;28;20079;-81
2023/10/18 11:19:51;;;;;;;1999.90;999.90;;;;;;;;;;5058738;28;20049;-83
2023/10/18 11:22:19;;;;;;;1999.90;999.90;;;;;;;;;;5065692;28;20048;-81
2023/10/18 11:24:49;;;;;;;1999.90;999.90;;;;;;;;;;5057375;28;20252;-81
2023/10/18 11:27:17;;;;;;;1999.90;999.90;;;;;;;;;;5059777;28;20057;-81
2023/10/18 11:29:43;;;;;;;1999.90;999.90;;;;;;;;;;5059288;28;20401;-81
2023/10/18 11:32:15;;;;;;;1999.90;999.90;;;;;;;;;;5052918;28;20502;-81
2023/10/18 11:34:43;;;;;;;1999.90;999.90;;;;;;;;;;5060373;28;20045;-83
2023/10/18 11:37:13;;;;;;;1999.90;999.90;;;;;;;;;;5056747;28;20509;-82
2023/10/18 11:39:41;;;;;;;1999.90;999.90;;;;;;;;;;5055516;28;20442;-82
2023/10/18 11:42:10;;;;;;;1999.90;999.90;;;;;;;;;;5060545;28;20041;-82
2023/10/18 11:44:39;;;;;;;1999.90;999.90;;;;;;;;;;5061187;28;20061;-82
2023/10/18 11:47:16;;;;;;;1999.90;999.90;;;;;;;;;;5058486;28;20519;-82
2023/10/18 11:49:45;;;;;;;1999.90;999.90;;;;;;;;;;5059900;28;20087;-82
2023/10/18 11:52:17;;;;;;;1999.90;999.90;;;;;;;;;;5062651;28;20057;-83
2023/10/18 11:54:44;;;;;;;1999.90;999.90;;;;;;;;;;5075357;28;20112;-82
2023/10/18 11:57:28;;;;;;;1999.90;999.90;;;;;;;;;;5069757;28;20409;-83
2023/10/18 11:59:56;;;;;;;1999.90;999.90;;;;;;;;;;5061095;28;20086;-83
2023/10/18 12:02:25;;;;;;;1999.90;999.90;;;;;;;;;;5062097;28;20051;-83
2023/10/18 12:04:52;;;;;;;1999.90;999.90;;;;;;;;;;5060240;28;20508;-83
2023/10/18 12:07:22;;;;;;;1999.90;999.90;;;;;;;;;;5064599;28;20049;-83
2023/10/18 12:09:51;;;;;;;1999.90;999.90;;;;;;;;;;5061064;28;20074;-80
2023/10/18 12:12:20;;;;;;;1999.90;999.90;;;;;;;;;;5057643;28;20051;-81
2023/10/18 12:14:47;;;;;;;1999.90;999.90;;;;;;;;;;5054841;28;20075;-84
2023/10/18 12:17:13;;;;;;;1999.90;999.90;;;;;;;;;;5057920;28;20050;-82
2023/10/18 12:19:40;;;;;;;1999.90;999.90;;;;;;;;;;5055483;28;20063;-85
2023/10/18 12:22:09;;;;;;;1999.90;999.90;;;;;;;;;;5054727;28;20056;-82
2023/10/18 12:24:38;;;;;;;1999.90;999.90;;;;;;;;;;5057373;28;20053;-80
2023/10/18 12:27:18;;;;;;;1999.90;999.90;;;;;;;;;;5054989;28;20168;-81
2023/10/18 12:29:44;;;;;;;1999.90;999.90;;;;;;;;;;5056732;28;20044;-83
2023/10/18 12:32:23;;;;;;;1999.90;999.90;;;;;;;;;;5056121;28;20060;-83
2023/10/18 12:34:56;;;;;;;1999.90;999.90;;;;;;;;;;5057806;28;20049;-82
2023/10/18 12:37:23;;;;;;;1999.90;999.90;;;;;;;;;;5055291;28;20444;-82
2023/10/18 12:39:51;;;;;;;1999.90;999.90;;;;;;;;;;5053322;28;20106;-82
2023/10/18 12:42:21;;;;;;;1999.90;999.90;;;;;;;;;;5061337;28;20060;-82
2023/10/18 12:44:48;;;;;;;1999.90;999.90;;;;;;;;;;5057629;28;20135;-82
2023/10/18 12:47:19;;;;;;;1999.90;999.90;;;;;;;;;;5054737;28;20130;-82
2023/10/18 12:49:46;;;;;;;1999.90;999.90;;;;;;;;;;5058784;28;20084;-82
2023/10/18 12:55:04;;;;;;;1999.90;999.90;;;;;;;;;;5054137;28;20044;-82
2023/10/18 12:57:32;;;;;;;1999.90;999.90;;;;;;;;;;5057250;28;20045;-82
2023/10/18 13:00:13;;;;;;;1999.90;999.90;;;;;;;;;;5054263;28;20045;-82
2023/10/18 13:02:48;;;;;;;1999.90;999.90;;;;;;;;;;5058140;28;20055;-82
2023/10/18 13:05:15;;;;;;;1999.90;999.90;;;;;;;;;;5058335;28;20051;-83
2023/10/18 13:07:43;;;;;;;1999.90;999.90;;;;;;;;;;5059075;28;20106;-83
2023/10/18 13:10:11;;;;;;;1999.90;999.90;;;;;;;;;;5059810;28;20408;-80
2023/10/18 13:12:43;;;;;;;1999.90;999.90;;;;;;;;;;5055487;28;20501;-82
2023/10/18 13:15:10;;;;;;;1999.90;999.90;;;;;;;;;;5055429;28;20049;-82
2023/10/18 13:17:37;;;;;;;1999.90;999.90;;;;;;;;;;5056327;28;20433;-82
2023/10/18 13:20:13;;;;;;;1999.90;999.90;;;;;;;;;;5059126;28;20048;-83
2023/10/18 13:22:40;;;;;;;1999.90;999.90;;;;;;;;;;5054632;28;20044;-83
2023/10/18 13:25:08;;;;;;;1999.90;999.90;;;;;;;;;;5060881;28;20055;-82
2023/10/18 13:27:38;;;;;;;1999.90;999.90;;;;;;;;;;5056799;28;20054;-81
2023/10/18 13:30:31;;;;;;;1999.90;999.90;;;;;;;;;;5058944;28;20048;-82
2023/10/18 13:33:00;;;;;;;1999.90;999.90;;;;;;;;;;5060715;28;20075;-83
2023/10/18 13:35:28;;;;;;;1999.90;999.90;;;;;;;;;;5062815;28;20059;-82
2023/10/18 13:37:55;;;;;;;1999.90;999.90;;;;;;;;;;5058227;28;20378;-84
2023/10/18 13:40:21;;;;;;;1999.90;999.90;;;;;;;;;;5056846;28;20084;-81
2023/10/18 13:42:50;;;;;;;1999.90;999.90;;;;;;;;;;5056771;28;20136;-83
2023/10/18 13:45:17;;;;;;;1999.90;999.90;;;;;;;;;;5056227;28;20099;-83
2023/10/18 13:47:44;;;;;;;1999.90;999.90;;;;;;;;;;5053517;28;20041;-81
2023/10/18 13:50:11;;;;;;;1999.90;999.90;;;;;;;;;;5052385;28;20456;-82
2023/10/18 13:52:38;;;;;;;1999.90;999.90;;;;;;;;;;5055749;28;20049;-83
2023/10/18 13:55:06;;;;;;;1999.90;999.90;;;;;;;;;;5054761;28;20588;-84
2023/10/18 13:57:35;;;;;;;1999.90;999.90;;;;;;;;;;5054963;28;20060;-83
2023/10/18 14:00:06;;;;;;;1999.90;999.90;;;;;;;;;;5055233;28;20055;-84
2023/10/18 14:02:36;;;;;;;1999.90;999.90;;;;;;;;;;5056863;28;20075;-82
2023/10/18 14:05:07;;;;;;;1999.90;999.90;;;;;;;;;;5064769;28;20417;-83
2023/10/18 14:07:35;;;;;;;1999.90;999.90;;;;;;;;;;5062531;28;20045;-81
2023/10/18 14:10:07;;;;;;;1999.90;999.90;;;;;;;;;;5062955;28;20101;-82